sensor_id;sensor_type;location;lat;lon;timestamp;pressure;altitude;pressure_sealevel;temperature;humidity
49461;BME280;35355;49.198;-0.368;2023-12-20T00:00:02;101946.91;;;8.98;71.86
49461;BME280;35355;49.198;-0.368;2023-12-20T00:02:28;101945.22;;;8.97;71.82
49461;BME280;35355;49.198;-0.368;2023-12-20T00:04:59;101939.81;;;8.90;71.67
49461;BME280;35355;49.198;-0.368;2023-12-20T00:07:28;101939.88;;;8.83;72.06
49461;BME280;35355;49.198;-0.368;2023-12-20T00:09:54;101945.75;;;8.80;71.83
49461;BME280;35355;49.198;-0.368;2023-12-20T00:12:21;101932.25;;;8.67;72.05
49461;BME280;35355;49.198;-0.368;2023-12-20T00:14:46;101936.81;;;8.73;72.36
49461;BME280;35355;49.198;-0.368;2023-12-20T00:17:12;101942.25;;;8.73;72.32
49461;BME280;35355;49.198;-0.368;2023-12-20T00:19:38;101943.06;;;8.73;72.11
49461;BME280;35355;49.198;-0.368;2023-12-20T00:22:06;101943.91;;;8.74;72.57
49461;BME280;35355;49.198;-0.368;2023-12-20T00:24:35;101936.63;;;8.68;72.43
49461;BME280;35355;49.198;-0.368;2023-12-20T00:27:01;101921.59;;;8.58;72.32
49461;BME280;35355;49.198;-0.368;2023-12-20T00:29:29;101936.69;;;8.61;72.48
49461;BME280;35355;49.198;-0.368;2023-12-20T00:32:07;101947.94;;;8.65;72.38
49461;BME280;35355;49.198;-0.368;2023-12-20T00:34:35;101955.50;;;8.63;72.50
49461;BME280;35355;49.198;-0.368;2023-12-20T00:37:01;101958.66;;;8.59;72.72
49461;BME280;35355;49.198;-0.368;2023-12-20T00:39:34;101937.94;;;8.58;72.57
49461;BME280;35355;49.198;-0.368;2023-12-20T00:42:00;101941.69;;;8.57;72.76
49461;BME280;35355;49.198;-0.368;2023-12-20T00:44:26;101932.72;;;8.57;72.64
49461;BME280;35355;49.198;-0.368;2023-12-20T00:46:53;101929.16;;;8.56;72.65
49461;BME280;35355;49.198;-0.368;2023-12-20T00:49:23;101925.81;;;8.54;72.82
49461;BME280;35355;49.198;-0.368;2023-12-20T00:51:51;101935.66;;;8.55;72.95
49461;BME280;35355;49.198;-0.368;2023-12-20T00:54:24;101935.81;;;8.60;72.38
49461;BME280;35355;49.198;-0.368;2023-12-20T00:56:49;101925.00;;;8.54;72.64
49461;BME280;35355;49.198;-0.368;2023-12-20T00:59:17;101932.50;;;8.58;72.72
49461;BME280;35355;49.198;-0.368;2023-12-20T01:04:20;101937.50;;;8.62;72.61
49461;BME280;35355;49.198;-0.368;2023-12-20T01:06:46;101936.91;;;8.59;72.42
49461;BME280;35355;49.198;-0.368;2023-12-20T01:09:13;101928.31;;;8.56;72.40
49461;BME280;35355;49.198;-0.368;2023-12-20T01:11:41;101925.44;;;8.51;72.53
49461;BME280;35355;49.198;-0.368;2023-12-20T01:14:10;101931.69;;;8.51;72.63
49461;BME280;35355;49.198;-0.368;2023-12-20T01:16:36;101915.63;;;8.43;72.66
49461;BME280;35355;49.198;-0.368;2023-12-20T01:19:03;101904.53;;;8.38;72.72
49461;BME280;35355;49.198;-0.368;2023-12-20T01:21:38;101913.53;;;8.38;72.91
49461;BME280;35355;49.198;-0.368;2023-12-20T01:24:14;101922.50;;;8.46;72.92
49461;BME280;35355;49.198;-0.368;2023-12-20T01:26:42;101929.41;;;8.48;72.93
49461;BME280;35355;49.198;-0.368;2023-12-20T01:29:14;101937.19;;;8.45;72.75
49461;BME280;35355;49.198;-0.368;2023-12-20T01:31:43;101936.75;;;8.41;72.75
49461;BME280;35355;49.198;-0.368;2023-12-20T01:34:15;101931.56;;;8.33;72.67
49461;BME280;35355;49.198;-0.368;2023-12-20T01:36:43;101925.50;;;8.31;73.05
49461;BME280;35355;49.198;-0.368;2023-12-20T01:39:10;101939.75;;;8.33;72.94
49461;BME280;35355;49.198;-0.368;2023-12-20T01:41:43;101936.81;;;8.28;72.77
49461;BME280;35355;49.198;-0.368;2023-12-20T01:44:20;101929.25;;;8.30;73.04
49461;BME280;35355;49.198;-0.368;2023-12-20T01:46:52;101921.16;;;8.23;72.93
49461;BME280;35355;49.198;-0.368;2023-12-20T01:49:17;101921.97;;;8.23;72.88
49461;BME280;35355;49.198;-0.368;2023-12-20T01:51:49;101907.41;;;8.11;72.66
49461;BME280;35355;49.198;-0.368;2023-12-20T01:54:21;101922.25;;;8.15;72.88
49461;BME280;35355;49.198;-0.368;2023-12-20T01:56:55;101922.47;;;8.07;73.18
49461;BME280;35355;49.198;-0.368;2023-12-20T01:59:21;101918.72;;;8.01;72.89
49461;BME280;35355;49.198;-0.368;2023-12-20T02:02:05;101919.81;;;7.94;72.76
49461;BME280;35355;49.198;-0.368;2023-12-20T02:04:34;101939.66;;;8.01;73.26
49461;BME280;35355;49.198;-0.368;2023-12-20T02:07:06;101930.25;;;7.97;73.27
49461;BME280;35355;49.198;-0.368;2023-12-20T02:09:35;101929.22;;;7.98;73.49
49461;BME280;35355;49.198;-0.368;2023-12-20T02:12:01;101935.47;;;7.98;73.73
49461;BME280;35355;49.198;-0.368;2023-12-20T02:14:30;101936.13;;;8.00;73.45
49461;BME280;35355;49.198;-0.368;2023-12-20T02:17:00;101945.69;;;8.03;73.48
49461;BME280;35355;49.198;-0.368;2023-12-20T02:19:28;101947.16;;;8.05;73.58
49461;BME280;35355;49.198;-0.368;2023-12-20T02:22:26;101931.50;;;8.01;73.64
49461;BME280;35355;49.198;-0.368;2023-12-20T02:24:57;101929.22;;;7.98;73.26
49461;BME280;35355;49.198;-0.368;2023-12-20T02:27:23;101930.25;;;7.97;72.96
49461;BME280;35355;49.198;-0.368;2023-12-20T02:29:50;101915.25;;;7.87;73.66
49461;BME280;35355;49.198;-0.368;2023-12-20T02:32:25;101927.34;;;7.92;73.33
49461;BME280;35355;49.198;-0.368;2023-12-20T02:35:01;101924.22;;;7.95;73.57
49461;BME280;35355;49.198;-0.368;2023-12-20T02:37:30;101930.25;;;7.97;73.53
49461;BME280;35355;49.198;-0.368;2023-12-20T02:39:57;101926.94;;;7.95;73.49
49461;BME280;35355;49.198;-0.368;2023-12-20T02:42:28;101935.69;;;7.97;73.35
49461;BME280;35355;49.198;-0.368;2023-12-20T02:44:54;101925.69;;;7.90;73.46
49461;BME280;35355;49.198;-0.368;2023-12-20T02:47:20;101936.72;;;7.96;73.43
49461;BME280;35355;49.198;-0.368;2023-12-20T02:49:46;101936.13;;;7.94;73.49
49461;BME280;35355;49.198;-0.368;2023-12-20T02:52:12;101929.00;;;7.93;73.37
49461;BME280;35355;49.198;-0.368;2023-12-20T02:54:38;101935.09;;;7.95;73.78
49461;BME280;35355;49.198;-0.368;2023-12-20T02:57:13;101928.19;;;7.92;73.55
49461;BME280;35355;49.198;-0.368;2023-12-20T02:59:43;101942.81;;;7.98;73.83
49461;BME280;35355;49.198;-0.368;2023-12-20T03:02:09;101944.28;;;8.00;73.68
49461;BME280;35355;49.198;-0.368;2023-12-20T03:04:37;101931.94;;;7.98;73.79
49461;BME280;35355;49.198;-0.368;2023-12-20T03:07:08;101923.56;;;7.93;73.53
49461;BME280;35355;49.198;-0.368;2023-12-20T03:09:34;101939.88;;;7.99;73.76
49461;BME280;35355;49.198;-0.368;2023-12-20T03:12:04;101930.25;;;7.97;73.47
49461;BME280;35355;49.198;-0.368;2023-12-20T03:14:34;101927.34;;;7.92;73.47
49461;BME280;35355;49.198;-0.368;2023-12-20T03:17:02;101929.84;;;7.93;73.69
49461;BME280;35355;49.198;-0.368;2023-12-20T03:19:36;101920.47;;;7.89;73.78
49461;BME280;35355;49.198;-0.368;2023-12-20T03:22:02;101920.84;;;7.93;73.84
49461;BME280;35355;49.198;-0.368;2023-12-20T03:24:29;101929.00;;;7.93;74.07
49461;BME280;35355;49.198;-0.368;2023-12-20T03:27:02;101917.75;;;7.89;73.41
49461;BME280;35355;49.198;-0.368;2023-12-20T03:29:31;101909.59;;;7.82;73.67
49461;BME280;35355;49.198;-0.368;2023-12-20T03:32:00;101922.75;;;7.92;73.63
49461;BME280;35355;49.198;-0.368;2023-12-20T03:34:30;101909.59;;;7.82;73.47
49461;BME280;35355;49.198;-0.368;2023-12-20T03:37:01;101926.72;;;7.89;73.42
49461;BME280;35355;49.198;-0.368;2023-12-20T03:39:28;101928.63;;;7.89;73.42
49461;BME280;35355;49.198;-0.368;2023-12-20T03:42:03;101905.66;;;7.78;73.69
49461;BME280;35355;49.198;-0.368;2023-12-20T03:44:30;101920.25;;;7.90;73.69
49461;BME280;35355;49.198;-0.368;2023-12-20T03:47:06;101921.91;;;7.92;73.54
49461;BME280;35355;49.198;-0.368;2023-12-20T03:49:32;101930.69;;;8.00;73.91
49461;BME280;35355;49.198;-0.368;2023-12-20T03:52:03;101926.44;;;8.04;73.71
49461;BME280;35355;49.198;-0.368;2023-12-20T03:54:28;101937.75;;;8.08;73.51
49461;BME280;35355;49.198;-0.368;2023-12-20T03:56:57;101936.72;;;8.09;73.69
49461;BME280;35355;49.198;-0.368;2023-12-20T03:59:28;101939.00;;;8.12;73.61
49461;BME280;35355;49.198;-0.368;2023-12-20T04:02:01;101934.59;;;8.11;73.45
49461;BME280;35355;49.198;-0.368;2023-12-20T04:04:33;101933.78;;;8.11;73.26
49461;BME280;35355;49.198;-0.368;2023-12-20T04:07:01;101928.56;;;8.02;73.29
49461;BME280;35355;49.198;-0.368;2023-12-20T04:09:28;101931.88;;;8.11;73.30
49461;BME280;35355;49.198;-0.368;2023-12-20T04:11:59;101921.59;;;8.13;73.46
49461;BME280;35355;49.198;-0.368;2023-12-20T04:14:35;101921.81;;;8.12;73.40
49461;BME280;35355;49.198;-0.368;2023-12-20T04:17:06;101929.31;;;8.16;73.22
49461;BME280;35355;49.198;-0.368;2023-12-20T04:19:38;101933.13;;;8.15;73.36
49461;BME280;35355;49.198;-0.368;2023-12-20T04:22:11;101935.19;;;8.13;73.24
49461;BME280;35355;49.198;-0.368;2023-12-20T04:24:37;101938.13;;;8.18;72.90
49461;BME280;35355;49.198;-0.368;2023-12-20T04:27:05;101941.88;;;8.17;73.08
49461;BME280;35355;49.198;-0.368;2023-12-20T04:29:34;101935.19;;;8.13;72.98
49461;BME280;35355;49.198;-0.368;2023-12-20T04:32:03;101946.06;;;8.13;73.07
49461;BME280;35355;49.198;-0.368;2023-12-20T04:34:30;101937.53;;;8.03;72.90
49461;BME280;35355;49.198;-0.368;2023-12-20T04:37:01;101942.75;;;8.04;73.00
49461;BME280;35355;49.198;-0.368;2023-12-20T04:39:30;101936.34;;;7.99;73.01
49461;BME280;35355;49.198;-0.368;2023-12-20T04:41:56;101939.88;;;7.99;72.82
49461;BME280;35355;49.198;-0.368;2023-12-20T04:44:22;101939.03;;;7.99;72.94
49461;BME280;35355;49.198;-0.368;2023-12-20T04:46:47;101916.91;;;7.88;73.17
49461;BME280;35355;49.198;-0.368;2023-12-20T04:49:16;101935.69;;;7.97;73.27
49461;BME280;35355;49.198;-0.368;2023-12-20T04:51:47;101933.19;;;7.95;73.04
49461;BME280;35355;49.198;-0.368;2023-12-20T04:56:58;101929.88;;;7.86;73.22
49461;BME280;35355;49.198;-0.368;2023-12-20T04:59:24;101945.13;;;7.87;73.02
49461;BME280;35355;49.198;-0.368;2023-12-20T05:02:03;101927.41;;;7.78;73.22
49461;BME280;35355;49.198;-0.368;2023-12-20T05:04:30;101937.41;;;7.84;73.08
49461;BME280;35355;49.198;-0.368;2023-12-20T05:07:06;101939.50;;;7.82;73.09
49461;BME280;35355;49.198;-0.368;2023-12-20T05:09:32;101930.34;;;7.70;72.94
49461;BME280;35355;49.198;-0.368;2023-12-20T05:12:01;101954.38;;;7.80;72.79
49461;BME280;35355;49.198;-0.368;2023-12-20T05:14:31;101959.81;;;7.80;73.20
49461;BME280;35355;49.198;-0.368;2023-12-20T05:17:00;101960.44;;;7.75;73.31
49461;BME280;35355;49.198;-0.368;2023-12-20T05:19:31;101970.47;;;7.81;72.87
49461;BME280;35355;49.198;-0.368;2023-12-20T05:22:01;101960.22;;;7.77;73.04
49461;BME280;35355;49.198;-0.368;2023-12-20T05:24:30;101958.34;;;7.77;73.25
49461;BME280;35355;49.198;-0.368;2023-12-20T05:26:56;101964.16;;;7.81;73.19
49461;BME280;35355;49.198;-0.368;2023-12-20T05:29:29;101950.78;;;7.79;72.98
49461;BME280;35355;49.198;-0.368;2023-12-20T05:31:57;101947.66;;;7.82;73.19
49461;BME280;35355;49.198;-0.368;2023-12-20T05:34:27;101964.34;;;7.93;73.00
49461;BME280;35355;49.198;-0.368;2023-12-20T05:36:56;101965.00;;;7.95;72.98
49461;BME280;35355;49.198;-0.368;2023-12-20T05:39:22;101953.47;;;7.99;72.97
49461;BME280;35355;49.198;-0.368;2023-12-20T05:41:56;101944.50;;;7.92;73.16
49461;BME280;35355;49.198;-0.368;2023-12-20T05:44:22;101948.41;;;8.10;73.06
49461;BME280;35355;49.198;-0.368;2023-12-20T05:46:48;101950.47;;;8.14;73.04
49461;BME280;35355;49.198;-0.368;2023-12-20T05:49:16;101952.38;;;8.14;72.67
49461;BME280;35355;49.198;-0.368;2023-12-20T05:51:43;101950.69;;;8.13;72.70
49461;BME280;35355;49.198;-0.368;2023-12-20T05:54:09;101951.53;;;8.13;72.52
49461;BME280;35355;49.198;-0.368;2023-12-20T05:56:37;101954.88;;;8.15;72.69
49461;BME280;35355;49.198;-0.368;2023-12-20T05:59:12;101945.03;;;8.14;72.57
49461;BME280;35355;49.198;-0.368;2023-12-20T06:01:42;101955.25;;;8.19;72.78
49461;BME280;35355;49.198;-0.368;2023-12-20T06:04:08;101953.19;;;8.21;72.93
49461;BME280;35355;49.198;-0.368;2023-12-20T06:06:43;101953.19;;;8.21;72.81
49461;BME280;35355;49.198;-0.368;2023-12-20T06:09:16;101953.13;;;8.28;72.90
49461;BME280;35355;49.198;-0.368;2023-12-20T06:11:43;101959.41;;;8.28;72.81
49461;BME280;35355;49.198;-0.368;2023-12-20T06:14:10;101952.91;;;8.29;72.49
49461;BME280;35355;49.198;-0.368;2023-12-20T06:16:42;101963.59;;;8.31;72.78
49461;BME280;35355;49.198;-0.368;2023-12-20T06:19:08;101963.59;;;8.31;72.77
49461;BME280;35355;49.198;-0.368;2023-12-20T06:21:41;101973.22;;;8.33;72.72
49461;BME280;35355;49.198;-0.368;2023-12-20T06:24:11;101976.75;;;8.34;72.72
49461;BME280;35355;49.198;-0.368;2023-12-20T06:26:36;101966.31;;;8.31;72.75
49461;BME280;35355;49.198;-0.368;2023-12-20T06:29:04;101977.81;;;8.33;72.25
49461;BME280;35355;49.198;-0.368;2023-12-20T06:31:33;101953.19;;;8.14;72.50
49461;BME280;35355;49.198;-0.368;2023-12-20T06:34:02;101965.31;;;8.18;72.48
49461;BME280;35355;49.198;-0.368;2023-12-20T06:36:29;101970.13;;;8.23;72.43
49461;BME280;35355;49.198;-0.368;2023-12-20T06:39:07;101976.81;;;8.20;72.45
49461;BME280;35355;49.198;-0.368;2023-12-20T06:41:45;101974.97;;;8.14;72.35
49461;BME280;35355;49.198;-0.368;2023-12-20T06:44:11;101983.94;;;8.15;72.63
49461;BME280;35355;49.198;-0.368;2023-12-20T06:46:37;101989.00;;;8.11;72.48
49461;BME280;35355;49.198;-0.368;2023-12-20T06:49:03;101980.63;;;8.06;72.42
49461;BME280;35355;49.198;-0.368;2023-12-20T06:51:32;101993.19;;;8.07;72.77
49461;BME280;35355;49.198;-0.368;2023-12-20T06:54:00;101988.38;;;8.02;72.79
49461;BME280;35355;49.198;-0.368;2023-12-20T06:56:31;101978.38;;;7.96;72.50
49461;BME280;35355;49.198;-0.368;2023-12-20T06:59:00;101990.28;;;8.02;72.65
49461;BME280;35355;49.198;-0.368;2023-12-20T07:01:26;101991.31;;;8.01;72.91
49461;BME280;35355;49.198;-0.368;2023-12-20T07:03:53;101988.81;;;7.99;72.46
49461;BME280;35355;49.198;-0.368;2023-12-20T07:06:18;101978.34;;;8.03;72.63
49461;BME280;35355;49.198;-0.368;2023-12-20T07:08:47;101959.09;;;8.04;72.98
49461;BME280;35355;49.198;-0.368;2023-12-20T07:11:17;101961.81;;;8.04;72.96
49461;BME280;35355;49.198;-0.368;2023-12-20T07:13:46;101957.22;;;8.05;72.56
49461;BME280;35355;49.198;-0.368;2023-12-20T07:16:15;101957.59;;;8.08;72.77
49461;BME280;35355;49.198;-0.368;2023-12-20T07:18:40;101956.97;;;8.13;72.97
49461;BME280;35355;49.198;-0.368;2023-12-20T07:21:09;101965.31;;;8.18;72.83
49461;BME280;35355;49.198;-0.368;2023-12-20T07:23:39;101959.44;;;8.21;72.96
49461;BME280;35355;49.198;-0.368;2023-12-20T07:26:05;101957.34;;;8.23;72.74
49461;BME280;35355;49.198;-0.368;2023-12-20T07:28:35;101962.56;;;8.25;72.82
49461;BME280;35355;49.198;-0.368;2023-12-20T07:31:02;101961.13;;;8.22;72.49
49461;BME280;35355;49.198;-0.368;2023-12-20T07:33:50;101964.88;;;8.21;72.98
49461;BME280;35355;49.198;-0.368;2023-12-20T07:36:19;101960.91;;;8.17;72.83
49461;BME280;35355;49.198;-0.368;2023-12-20T07:38:48;101953.19;;;8.14;72.70
49461;BME280;35355;49.198;-0.368;2023-12-20T07:41:20;101949.06;;;8.05;72.45
49461;BME280;35355;49.198;-0.368;2023-12-20T07:43:47;101962.88;;;8.03;72.89
49461;BME280;35355;49.198;-0.368;2023-12-20T07:46:12;101965.38;;;8.05;72.92
49461;BME280;35355;49.198;-0.368;2023-12-20T07:48:38;101975.00;;;8.01;72.92
49461;BME280;35355;49.198;-0.368;2023-12-20T07:51:04;101972.28;;;8.01;73.11
49461;BME280;35355;49.198;-0.368;2023-12-20T07:53:36;101972.06;;;7.96;73.11
49461;BME280;35355;49.198;-0.368;2023-12-20T07:56:16;101979.41;;;7.95;72.54
49461;BME280;35355;49.198;-0.368;2023-12-20T07:58:42;101985.88;;;7.94;73.05
49461;BME280;35355;49.198;-0.368;2023-12-20T08:01:08;101993.44;;;7.92;72.76
49461;BME280;35355;49.198;-0.368;2023-12-20T08:03:36;101988.22;;;7.90;72.96
49461;BME280;35355;49.198;-0.368;2023-12-20T08:06:02;101998.03;;;7.92;72.71
49461;BME280;35355;49.198;-0.368;2023-12-20T08:08:30;102007.03;;;7.92;72.90
49461;BME280;35355;49.198;-0.368;2023-12-20T08:10:56;101998.03;;;7.92;73.10
49461;BME280;35355;49.198;-0.368;2023-12-20T08:13:29;101984.88;;;7.82;73.13
49461;BME280;35355;49.198;-0.368;2023-12-20T08:15:55;102013.94;;;7.88;73.03
49461;BME280;35355;49.198;-0.368;2023-12-20T08:18:24;102009.75;;;7.92;73.16
49461;BME280;35355;49.198;-0.368;2023-12-20T08:20:53;101988.44;;;7.76;73.03
49461;BME280;35355;49.198;-0.368;2023-12-20T08:23:19;102007.44;;;7.89;73.10
49461;BME280;35355;49.198;-0.368;2023-12-20T08:25:46;102010.16;;;7.89;72.89
49461;BME280;35355;49.198;-0.368;2023-12-20T08:28:13;102003.06;;;7.88;73.26
49461;BME280;35355;49.198;-0.368;2023-12-20T08:30:46;102002.41;;;7.93;73.43
49461;BME280;35355;49.198;-0.368;2023-12-20T08:33:12;102006.38;;;7.97;73.26
49461;BME280;35355;49.198;-0.368;2023-12-20T08:35:39;102000.13;;;7.96;73.52
49461;BME280;35355;49.198;-0.368;2023-12-20T08:38:17;102014.09;;;8.00;73.29
49461;BME280;35355;49.198;-0.368;2023-12-20T08:40:46;102015.97;;;8.06;73.25
49461;BME280;35355;49.198;-0.368;2023-12-20T08:43:11;102013.25;;;8.06;73.46
49461;BME280;35355;49.198;-0.368;2023-12-20T08:45:38;102019.50;;;8.13;73.23
49461;BME280;35355;49.198;-0.368;2023-12-20T08:48:05;102015.97;;;8.19;73.33
49461;BME280;35355;49.198;-0.368;2023-12-20T08:50:31;101994.19;;;8.19;73.45
49461;BME280;35355;49.198;-0.368;2023-12-20T08:52:56;102005.84;;;8.33;73.07
49461;BME280;35355;49.198;-0.368;2023-12-20T08:55:22;101999.53;;;8.39;73.53
49461;BME280;35355;49.198;-0.368;2023-12-20T08:58:03;101995.75;;;8.47;73.75
49461;BME280;35355;49.198;-0.368;2023-12-20T09:00:32;101980.25;;;8.54;73.29
49461;BME280;35355;49.198;-0.368;2023-12-20T09:03:05;101978.16;;;8.56;73.30
49461;BME280;35355;49.198;-0.368;2023-12-20T09:05:40;101985.81;;;8.66;73.24
49461;BME280;35355;49.198;-0.368;2023-12-20T09:08:06;101986.25;;;8.70;72.83
49461;BME280;35355;49.198;-0.368;2023-12-20T09:10:38;101985.16;;;8.71;72.92
49461;BME280;35355;49.198;-0.368;2023-12-20T09:13:05;101990.63;;;8.71;72.88
49461;BME280;35355;49.198;-0.368;2023-12-20T09:15:51;101987.06;;;8.70;72.89
49461;BME280;35355;49.198;-0.368;2023-12-20T09:18:16;101987.28;;;8.69;72.78
49461;BME280;35355;49.198;-0.368;2023-12-20T09:20:48;101986.25;;;8.63;72.98
49461;BME280;35355;49.198;-0.368;2023-12-20T09:23:14;101987.94;;;8.64;72.80
49461;BME280;35355;49.198;-0.368;2023-12-20T09:25:40;101989.84;;;8.64;73.10
49461;BME280;35355;49.198;-0.368;2023-12-20T09:28:06;101979.38;;;8.60;72.99
49461;BME280;35355;49.198;-0.368;2023-12-20T09:30:32;101996.50;;;8.68;73.09
49461;BME280;35355;49.198;-0.368;2023-12-20T09:33:01;101995.22;;;8.70;73.21
49461;BME280;35355;49.198;-0.368;2023-12-20T09:35:33;102002.13;;;8.73;73.39
49461;BME280;35355;49.198;-0.368;2023-12-20T09:38:03;102003.59;;;8.75;73.18
49461;BME280;35355;49.198;-0.368;2023-12-20T09:40:41;101971.41;;;8.66;73.25
49461;BME280;35355;49.198;-0.368;2023-12-20T09:43:19;101988.44;;;8.86;73.26
49461;BME280;35355;49.198;-0.368;2023-12-20T09:45:47;101987.56;;;8.92;73.32
49461;BME280;35355;49.198;-0.368;2023-12-20T09:48:17;101985.34;;;9.08;73.46
49461;BME280;35355;49.198;-0.368;2023-12-20T09:50:47;101988.22;;;9.20;73.61
49461;BME280;35355;49.198;-0.368;2023-12-20T09:53:15;101983.06;;;9.30;73.34
49461;BME280;35355;49.198;-0.368;2023-12-20T09:55:42;101995.59;;;9.38;73.25
49461;BME280;35355;49.198;-0.368;2023-12-20T09:58:08;101990.59;;;9.35;73.07
49461;BME280;35355;49.198;-0.368;2023-12-20T10:00:35;102009.94;;;9.52;73.22
49461;BME280;35355;49.198;-0.368;2023-12-20T10:03:01;102008.03;;;9.52;73.27
49461;BME280;35355;49.198;-0.368;2023-12-20T10:05:35;102023.53;;;9.58;73.23
49461;BME280;35355;49.198;-0.368;2023-12-20T10:08:04;102006.31;;;9.58;73.29
49461;BME280;35355;49.198;-0.368;2023-12-20T10:10:34;101999.84;;;9.52;73.04
49461;BME280;35355;49.198;-0.368;2023-12-20T10:13:12;102000.03;;;9.57;73.15
49461;BME280;35355;49.198;-0.368;2023-12-20T10:15:38;102011.88;;;9.70;73.06
49461;BME280;35355;49.198;-0.368;2023-12-20T10:18:11;101993.69;;;9.63;73.32
49461;BME280;35355;49.198;-0.368;2023-12-20T10:20:40;102019.75;;;9.78;73.54
49461;BME280;35355;49.198;-0.368;2023-12-20T10:23:08;101999.00;;;9.77;73.28
49461;BME280;35355;49.198;-0.368;2023-12-20T10:25:35;101990.75;;;9.83;73.16
49461;BME280;35355;49.198;-0.368;2023-12-20T10:28:15;101988.56;;;9.92;73.37
49461;BME280;35355;49.198;-0.368;2023-12-20T10:30:49;101981.59;;;9.96;73.44
49461;BME280;35355;49.198;-0.368;2023-12-20T10:36:14;101975.25;;;10.03;73.34
49461;BME280;35355;49.198;-0.368;2023-12-20T10:38:44;101975.84;;;10.05;73.03
49461;BME280;35355;49.198;-0.368;2023-12-20T10:41:16;101982.19;;;10.17;73.31
49461;BME280;35355;49.198;-0.368;2023-12-20T10:43:50;101981.13;;;10.18;73.37
49461;BME280;35355;49.198;-0.368;2023-12-20T10:46:16;101986.28;;;10.26;73.14
49461;BME280;35355;49.198;-0.368;2023-12-20T10:48:45;101985.22;;;10.27;73.27
49461;BME280;35355;49.198;-0.368;2023-12-20T10:51:14;101975.38;;;10.26;73.29
49461;BME280;35355;49.198;-0.368;2023-12-20T10:53:44;101966.50;;;10.31;73.61
49461;BME280;35355;49.198;-0.368;2023-12-20T10:56:16;101967.97;;;10.33;73.77
49461;BME280;35355;49.198;-0.368;2023-12-20T10:58:50;101962.28;;;10.35;73.42
49461;BME280;35355;49.198;-0.368;2023-12-20T11:01:27;101963.69;;;10.38;73.39
49461;BME280;35355;49.198;-0.368;2023-12-20T11:03:57;101958.00;;;10.39;73.75
49461;BME280;35355;49.198;-0.368;2023-12-20T11:06:40;101963.84;;;10.43;73.25
49461;BME280;35355;49.198;-0.368;2023-12-20T11:09:25;101942.94;;;10.37;73.76
49461;BME280;35355;49.198;-0.368;2023-12-20T11:14:50;101941.09;;;10.49;73.90
49461;BME280;35355;49.198;-0.368;2023-12-20T11:17:23;101953.72;;;10.62;73.80
49461;BME280;35355;49.198;-0.368;2023-12-20T11:22:33;101945.88;;;10.65;73.49
49461;BME280;35355;49.198;-0.368;2023-12-20T11:25:08;101933.63;;;10.56;73.63
49461;BME280;35355;49.198;-0.368;2023-12-20T11:27:36;101934.22;;;10.58;73.33
49461;BME280;35355;49.198;-0.368;2023-12-20T11:30:09;101941.25;;;10.54;73.62
49461;BME280;35355;49.198;-0.368;2023-12-20T11:32:36;101939.56;;;10.53;73.71
49461;BME280;35355;49.198;-0.368;2023-12-20T11:37:46;101930.78;;;10.63;73.91
49461;BME280;35355;49.198;-0.368;2023-12-20T11:40:16;101920.72;;;10.63;74.15
49461;BME280;35355;49.198;-0.368;2023-12-20T11:42:49;101924.19;;;10.70;73.97
49461;BME280;35355;49.198;-0.368;2023-12-20T11:45:17;101921.00;;;10.74;73.87
49461;BME280;35355;49.198;-0.368;2023-12-20T11:48:14;101927.88;;;10.76;74.07
49461;BME280;35355;49.198;-0.368;2023-12-20T11:50:48;101914.69;;;10.73;73.73
49461;BME280;35355;49.198;-0.368;2023-12-20T11:53:13;101924.22;;;10.82;74.33
49461;BME280;35355;49.198;-0.368;2023-12-20T11:55:40;101914.94;;;10.83;73.99
49461;BME280;35355;49.198;-0.368;2023-12-20T11:58:06;101907.72;;;10.89;74.14
49461;BME280;35355;49.198;-0.368;2023-12-20T12:00:35;101902.97;;;10.96;73.80
49461;BME280;35355;49.198;-0.368;2023-12-20T12:03:07;101897.50;;;10.96;73.85
49461;BME280;35355;49.198;-0.368;2023-12-20T12:05:40;101890.38;;;10.95;73.77
49461;BME280;35355;49.198;-0.368;2023-12-20T12:08:09;101896.69;;;10.96;73.79
49461;BME280;35355;49.198;-0.368;2023-12-20T12:10:39;101880.03;;;10.85;73.88
49461;BME280;35355;49.198;-0.368;2023-12-20T12:13:05;101886.47;;;10.91;73.68
49461;BME280;35355;49.198;-0.368;2023-12-20T12:15:33;101872.34;;;10.94;73.71
49461;BME280;35355;49.198;-0.368;2023-12-20T12:17:59;101864.88;;;11.01;74.13
49461;BME280;35355;49.198;-0.368;2023-12-20T12:20:25;101854.03;;;11.06;74.27
49461;BME280;35355;49.198;-0.368;2023-12-20T12:23:01;101866.88;;;11.18;74.11
49461;BME280;35355;49.198;-0.368;2023-12-20T12:25:28;101874.47;;;11.28;74.27
49461;BME280;35355;49.198;-0.368;2023-12-20T12:27:56;101868.75;;;11.29;74.05
49461;BME280;35355;49.198;-0.368;2023-12-20T12:30:24;101878.75;;;11.35;74.10
49461;BME280;35355;49.198;-0.368;2023-12-20T12:32:58;101884.31;;;11.40;73.91
49461;BME280;35355;49.198;-0.368;2023-12-20T12:35:27;101870.81;;;11.34;73.32
49461;BME280;35355;49.198;-0.368;2023-12-20T12:37:59;101873.41;;;11.29;73.25
49461;BME280;35355;49.198;-0.368;2023-12-20T12:40:26;101860.78;;;11.28;73.84
49461;BME280;35355;49.198;-0.368;2023-12-20T12:42:51;101864.63;;;11.27;73.80
49461;BME280;35355;49.198;-0.368;2023-12-20T12:45:17;101855.09;;;11.17;73.69
49461;BME280;35355;49.198;-0.368;2023-12-20T12:47:46;101829.59;;;11.12;73.68
49461;BME280;35355;49.198;-0.368;2023-12-20T12:50:12;101837.28;;;11.27;74.04
49461;BME280;35355;49.198;-0.368;2023-12-20T12:52:38;101825.50;;;11.26;73.97
49461;BME280;35355;49.198;-0.368;2023-12-20T12:55:10;101818.63;;;11.35;74.16
49461;BME280;35355;49.198;-0.368;2023-12-20T12:57:39;101818.59;;;11.47;74.20
49461;BME280;35355;49.198;-0.368;2023-12-20T13:00:05;101800.13;;;11.54;74.36
49461;BME280;35355;49.198;-0.368;2023-12-20T13:02:39;101809.38;;;11.65;74.08
49461;BME280;35355;49.198;-0.368;2023-12-20T13:05:11;101790.50;;;11.64;74.14
49461;BME280;35355;49.198;-0.368;2023-12-20T13:07:36;101789.47;;;11.82;73.77
49461;BME280;35355;49.198;-0.368;2023-12-20T13:10:03;101774.47;;;11.84;73.58
49461;BME280;35355;49.198;-0.368;2023-12-20T13:12:29;101770.41;;;11.87;74.07
49461;BME280;35355;49.198;-0.368;2023-12-20T13:15:05;101764.94;;;11.87;73.85